Free aircraft booking by Goboko

Please sign in again to add a member

Sign in

Goboko Update

Goboko is set to continue

The Goboko booking system is to continue under a new operator, a member of one of our longest-subscribed flying clubs

The new and previous operators of the site are working to ensure there will be no interruption to your booking service as the transition takes place. Of course, aircraft booking will continue to be free

Thank you for your continued commitment to Goboko

Info

Aviation weather

METAR KDAB 250853Z 00000KT 7SM FEW120 FEW200 24/24 A3006 RMK AO2 SLP178 T02440244 55000 $

TAF KDAB 250536Z 2506/2606 VRB03KT P6SM SCT250 FM251600 13005KT P6SM VCSH SCT035 FM251900 09007KT P6SM SCT040 FM260100 16002KT P6SM BKN250

Aviation weather from ADDS. Re-check weather before flight.

-